Time;durP1;ratioP1;P1;durP2;ratioP2;P2;SDS_P1;SDS_P2;PMS_P1;PMS_P2;Temp;Humidity;BMP_temperature;BMP_pressure;BME280_temperature;BME280_humidity;BME280_pressure;Samples;Min_cycle;Max_cycle;Signal;HPM_P1;HPM_P2
2022/01/10 00:00:11;;;;;;;;;;;;;;;;;;1049847;28;3999;-70
2022/01/10 00:00:56;;;;;;;;;;;;;;;;;;1052965;28;3518;-69
2022/01/10 00:01:28;;;;;;;;;;;;;;;;;;1053721;28;2448;-69
2022/01/10 00:01:59;;;;;;;;;;;;;;;;;;1054990;28;1948;-69
2022/01/10 00:02:29;;;;;;;;;;;;;;;;;;1054057;28;2060;-69
2022/01/10 00:03:01;;;;;;;;;;;;;;;;;;1055122;28;1639;-68
2022/01/10 00:03:31;;;;;;;;;;;;;;;;;;1054801;27;3528;-71
2022/01/10 00:04:02;;;;;;;;;;;;;;;;;;1054289;28;3625;-68
2022/01/10 00:04:32;;;;;;;;;;;;;;;;;;1054195;28;2243;-70
2022/01/10 00:05:02;;;;;;;;;;;;;;;;;;1054181;28;2101;-70
2022/01/10 00:05:33;;;;;;;;;;;;;;;;;;1049207;28;3545;-68
2022/01/10 00:06:03;;;;;;;;;;;;;;;;;;1047349;28;2968;-68
2022/01/10 00:06:35;;;;;;;;;;;;;;;;;;1049570;28;1339;-68
2022/01/10 00:07:05;;;;;;;;;;;;;;;;;;1049767;28;2158;-68
2022/01/10 00:07:35;;;;;;;;;;;;;;;;;;1049991;28;1831;-69
2022/01/10 00:08:05;;;;;;;;;;;;;;;;;;1050106;28;1927;-69
2022/01/10 00:08:37;;;;;;;;;;;;;;;;;;1048957;28;3257;-69
2022/01/10 00:09:08;;;;;;;;;;;;;;;;;;1048923;28;3036;-69
2022/01/10 00:09:38;;;;;;;;;;;;;;;;;;1054687;28;1565;-68
2022/01/10 00:10:08;;;;;;;;;;;;;;;;;;1053351;28;3795;-69
2022/01/10 00:10:39;;;;;;;;;;;;;;;;;;1053992;28;3254;-69
2022/01/10 00:11:09;;;;;;;;;;;;;;;;;;1052860;27;3086;-68
2022/01/10 00:11:39;;;;;;;;;;;;;;;;;;1054223;28;2370;-69
2022/01/10 00:12:09;;;;;;;;;;;;;;;;;;1055001;28;1829;-70
2022/01/10 00:12:40;;;;;;;;;;;;;;;;;;1053868;28;3257;-70
2022/01/10 00:13:10;;;;;;;;;;;;;;;;;;1053967;28;3507;-69
2022/01/10 00:13:40;;;;;;;;;;;;;;;;;;1054617;28;1910;-69
2022/01/10 00:14:11;;;;;;;;;;;;;;;;;;1053628;28;2473;-69
2022/01/10 00:14:41;;;;;;;;;;;;;;;;;;1054368;28;1806;-69
2022/01/10 00:15:12;;;;;;;;;;;;;;;;;;1053072;28;3528;-69
2022/01/10 00:15:44;;;;;;;;;;;;;;;;;;1054110;28;3694;-68
2022/01/10 00:16:15;;;;;;;;;;;;;;;;;;1054185;28;1565;-69
2022/01/10 00:16:45;;;;;;;;;;;;;;;;;;1054240;28;1663;-68
2022/01/10 00:17:15;;;;;;;;;;;;;;;;;;1054598;28;1857;-69
2022/01/10 00:17:45;;;;;;;;;;;;;;;;;;1054883;28;2258;-69
2022/01/10 00:18:16;;;;;;;;;;;;;;;;;;1054014;28;2185;-68
2022/01/10 00:18:46;;;;;;;;;;;;;;;;;;1053027;28;2859;-69
2022/01/10 00:19:16;;;;;;;;;;;;;;;;;;1053676;28;3012;-69
2022/01/10 00:19:46;;;;;;;;;;;;;;;;;;1054382;27;3611;-70
2022/01/10 00:20:17;;;;;;;;;;;;;;;;;;1054797;28;3735;-68
2022/01/10 00:20:48;;;;;;;;;;;;;;;;;;1053923;28;3265;-69
2022/01/10 00:21:19;;;;;;;;;;;;;;;;;;1052457;28;3267;-68
2022/01/10 00:21:49;;;;;;;;;;;;;;;;;;1049786;28;2934;-69
2022/01/10 00:22:20;;;;;;;;;;;;;;;;;;1050211;28;1603;-69
2022/01/10 00:22:51;;;;;;;;;;;;;;;;;;1050587;28;1558;-70
2022/01/10 00:23:21;;;;;;;;;;;;;;;;;;1050273;28;1896;-69
2022/01/10 00:23:52;;;;;;;;;;;;;;;;;;1048800;28;3290;-69
2022/01/10 00:24:22;;;;;;;;;;;;;;;;;;1047864;28;3614;-68
2022/01/10 00:24:52;;;;;;;;;;;;;;;;;;1049125;28;1825;-68
2022/01/10 00:25:23;;;;;;;;;;;;;;;;;;1048393;28;2426;-68
2022/01/10 00:25:53;;;;;;;;;;;;;;;;;;1054553;28;2527;-69
2022/01/10 00:26:23;;;;;;;;;;;;;;;;;;1053575;28;2599;-68
2022/01/10 00:26:54;;;;;;;;;;;;;;;;;;1054502;28;2108;-69
2022/01/10 00:27:24;;;;;;;;;;;;;;;;;;1053816;28;3422;-68
2022/01/10 00:27:54;;;;;;;;;;;;;;;;;;1048762;28;1997;-68
2022/01/10 00:28:24;;;;;;;;;;;;;;;;;;1049103;28;3526;-69
2022/01/10 00:28:55;;;;;;;;;;;;;;;;;;1048650;28;3171;-70
2022/01/10 00:29:25;;;;;;;;;;;;;;;;;;1050063;28;1715;-69
2022/01/10 00:29:55;;;;;;;;;;;;;;;;;;1053211;28;2914;-68
2022/01/10 00:30:26;;;;;;;;;;;;;;;;;;1053467;28;3150;-68
2022/01/10 00:30:56;;;;;;;;;;;;;;;;;;1053959;28;3237;-69
2022/01/10 00:31:26;;;;;;;;;;;;;;;;;;1054838;28;3006;-68
2022/01/10 00:31:59;;;;;;;;;;;;;;;;;;1052386;28;3384;-68
2022/01/10 00:32:29;;;;;;;;;;;;;;;;;;1053565;28;3343;-68
2022/01/10 00:33:00;;;;;;;;;;;;;;;;;;1053656;28;3387;-69
2022/01/10 00:33:30;;;;;;;;;;;;;;;;;;1054753;28;1682;-68
2022/01/10 00:34:00;;;;;;;;;;;;;;;;;;1054148;28;1926;-69
2022/01/10 00:34:30;;;;;;;;;;;;;;;;;;1050565;28;1820;-68
2022/01/10 00:35:01;;;;;;;;;;;;;;;;;;1048662;28;3296;-69
2022/01/10 00:35:31;;;;;;;;;;;;;;;;;;1048957;28;2964;-70
2022/01/10 00:36:01;;;;;;;;;;;;;;;;;;1047965;28;3384;-70
2022/01/10 00:36:32;;;;;;;;;;;;;;;;;;1054380;28;3346;-69
2022/01/10 00:37:02;;;;;;;;;;;;;;;;;;1054493;28;1863;-69
2022/01/10 00:37:34;;;;;;;;;;;;;;;;;;1054358;28;1595;-69
2022/01/10 00:38:04;;;;;;;;;;;;;;;;;;1053017;28;3251;-69
2022/01/10 00:38:34;;;;;;;;;;;;;;;;;;1053672;28;1935;-69
2022/01/10 00:39:05;;;;;;;;;;;;;;;;;;1054441;28;1593;-68
2022/01/10 00:39:35;;;;;;;;;;;;;;;;;;1054379;28;1928;-68
2022/01/10 00:40:06;;;;;;;;;;;;;;;;;;1053191;28;3524;-70
2022/01/10 00:40:36;;;;;;;;;;;;;;;;;;1052968;28;2257;-69
2022/01/10 00:41:06;;;;;;;;;;;;;;;;;;1052971;28;2954;-69
2022/01/10 00:41:37;;;;;;;;;;;;;;;;;;1054414;28;2840;-69
2022/01/10 00:42:07;;;;;;;;;;;;;;;;;;1054220;28;2802;-67
2022/01/10 00:42:38;;;;;;;;;;;;;;;;;;1054631;28;1585;-69
2022/01/10 00:43:17;;;;;;;;;;;;;;;;;;1048104;28;3315;-69
2022/01/10 00:43:48;;;;;;;;;;;;;;;;;;1049282;28;3350;-68
2022/01/10 00:44:25;;;;;;;;;;;;;;;;;;1048536;28;3389;-69
2022/01/10 00:44:57;;;;;;;;;;;;;;;;;;1050999;28;3571;-68
2022/01/10 00:45:28;;;;;;;;;;;;;;;;;;1053939;28;2049;-67
2022/01/10 00:45:59;;;;;;;;;;;;;;;;;;1054626;28;2062;-69
2022/01/10 00:46:29;;;;;;;;;;;;;;;;;;1053895;28;3350;-69
2022/01/10 00:46:59;;;;;;;;;;;;;;;;;;1054965;28;1784;-69
2022/01/10 00:47:29;;;;;;;;;;;;;;;;;;1054410;28;1914;-68
2022/01/10 00:48:00;;;;;;;;;;;;;;;;;;1054547;28;1959;-69
2022/01/10 00:48:30;;;;;;;;;;;;;;;;;;1054424;28;3125;-69
2022/01/10 00:49:00;;;;;;;;;;;;;;;;;;1054342;28;1971;-69
2022/01/10 00:49:31;;;;;;;;;;;;;;;;;;1054093;28;2041;-69
2022/01/10 00:50:02;;;;;;;;;;;;;;;;;;1053041;28;3683;-70
2022/01/10 00:50:33;;;;;;;;;;;;;;;;;;1054631;28;1906;-69
2022/01/10 00:51:03;;;;;;;;;;;;;;;;;;1053949;28;2918;-69
2022/01/10 00:51:34;;;;;;;;;;;;;;;;;;1053724;28;3627;-68
2022/01/10 00:52:04;;;;;;;;;;;;;;;;;;1054431;28;1721;-70
2022/01/10 00:52:34;;;;;;;;;;;;;;;;;;1054864;28;1388;-69
2022/01/10 00:53:05;;;;;;;;;;;;;;;;;;1053799;28;1561;-69
2022/01/10 00:53:35;;;;;;;;;;;;;;;;;;1053726;28;2232;-68
2022/01/10 00:54:06;;;;;;;;;;;;;;;;;;1052108;28;3672;-69
2022/01/10 00:54:36;;;;;;;;;;;;;;;;;;1054860;28;3319;-68
2022/01/10 00:55:07;;;;;;;;;;;;;;;;;;1054186;28;1820;-69
2022/01/10 00:55:37;;;;;;;;;;;;;;;;;;1053340;28;3326;-69
2022/01/10 00:56:09;;;;;;;;;;;;;;;;;;1050930;28;3293;-69
2022/01/10 00:56:39;;;;;;;;;;;;;;;;;;1054133;28;2888;-68
2022/01/10 00:57:10;;;;;;;;;;;;;;;;;;1053498;28;2707;-69
2022/01/10 00:57:40;;;;;;;;;;;;;;;;;;1054967;28;1441;-69
2022/01/10 00:58:10;;;;;;;;;;;;;;;;;;1053568;28;1827;-69
2022/01/10 00:58:41;;;;;;;;;;;;;;;;;;1054493;28;3299;-69
2022/01/10 00:59:11;;;;;;;;;;;;;;;;;;1052802;28;3001;-69
2022/01/10 00:59:41;;;;;;;;;;;;;;;;;;1053659;28;4695;-69
2022/01/10 01:00:12;;;;;;;;;;;;;;;;;;1050651;28;3179;-68
2022/01/10 01:00:42;;;;;;;;;;;;;;;;;;1053000;28;2468;-69
2022/01/10 01:01:13;;;;;;;;;;;;;;;;;;1054407;28;1576;-69
2022/01/10 01:01:43;;;;;;;;;;;;;;;;;;1054462;28;1834;-69
2022/01/10 01:02:13;;;;;;;;;;;;;;;;;;1054067;28;2562;-68
2022/01/10 01:02:44;;;;;;;;;;;;;;;;;;1053263;28;3297;-70
2022/01/10 01:03:14;;;;;;;;;;;;;;;;;;1053994;28;3330;-69
2022/01/10 01:03:45;;;;;;;;;;;;;;;;;;1054882;28;1790;-68
2022/01/10 01:04:16;;;;;;;;;;;;;;;;;;1054644;28;1539;-68
2022/01/10 01:04:46;;;;;;;;;;;;;;;;;;1054612;28;1826;-68
2022/01/10 01:05:18;;;;;;;;;;;;;;;;;;1053461;28;3255;-69
2022/01/10 01:05:48;;;;;;;;;;;;;;;;;;1052680;28;3218;-69
2022/01/10 01:06:19;;;;;;;;;;;;;;;;;;1051948;28;2689;-69
2022/01/10 01:06:49;;;;;;;;;;;;;;;;;;1053366;28;2274;-68
2022/01/10 01:07:19;;;;;;;;;;;;;;;;;;1052970;28;3076;-68
2022/01/10 01:07:50;;;;;;;;;;;;;;;;;;1054346;28;2316;-70
2022/01/10 01:08:20;;;;;;;;;;;;;;;;;;1052890;28;1675;-68
2022/01/10 01:08:56;;;;;;;;;;;;;;;;;;1054364;28;3108;-69
2022/01/10 01:09:29;;;;;;;;;;;;;;;;;;1052202;28;2043;-69
2022/01/10 01:12:31;;;;;;;;;;;;;;;;;;1054463;28;1804;-69
2022/01/10 01:13:08;;;;;;;;;;;;;;;;;;1053745;28;2393;-67
2022/01/10 01:13:53;;;;;;;;;;;;;;;;;;1053919;28;3311;-68
2022/01/10 01:15:26;;;;;;;;;;;;;;;;;;1053142;28;2426;-69
2022/01/10 01:16:42;;;;;;;;;;;;;;;;;;1052949;28;3040;-68
2022/01/10 01:17:26;;;;;;;;;;;;;;;;;;1053823;28;2236;-69
2022/01/10 01:19:52;;;;;;;;;;;;;;;;;;1053903;28;2109;-69
2022/01/10 01:24:26;;;;;;;;;;;;;;;;;;1054301;28;1661;-69
2022/01/10 01:24:56;;;;;;;;;;;;;;;;;;1053732;28;3731;-68
2022/01/10 01:25:27;;;;;;;;;;;;;;;;;;1052974;28;3139;-69
2022/01/10 01:25:57;;;;;;;;;;;;;;;;;;1052117;28;3339;-68
2022/01/10 01:26:29;;;;;;;;;;;;;;;;;;1051787;28;2190;-68
2022/01/10 01:26:59;;;;;;;;;;;;;;;;;;1052439;28;3334;-68
2022/01/10 01:27:29;;;;;;;;;;;;;;;;;;1052718;28;2513;-69
2022/01/10 01:28:00;;;;;;;;;;;;;;;;;;1053728;28;1800;-69
2022/01/10 01:28:31;;;;;;;;;;;;;;;;;;1052553;28;3367;-69
2022/01/10 01:29:02;;;;;;;;;;;;;;;;;;1052566;28;3604;-69
2022/01/10 01:29:34;;;;;;;;;;;;;;;;;;1052853;28;2153;-68
2022/01/10 01:30:05;;;;;;;;;;;;;;;;;;1052489;28;2443;-68
2022/01/10 01:30:35;;;;;;;;;;;;;;;;;;1048728;28;2933;-69
2022/01/10 01:31:05;;;;;;;;;;;;;;;;;;1048845;28;3583;-68
2022/01/10 01:31:36;;;;;;;;;;;;;;;;;;1044271;28;3322;-68
2022/01/10 01:32:07;;;;;;;;;;;;;;;;;;1043844;28;3359;-69
2022/01/10 01:32:37;;;;;;;;;;;;;;;;;;1049481;28;2929;-68
2022/01/10 01:33:08;;;;;;;;;;;;;;;;;;1048217;28;3409;-68
2022/01/10 01:33:39;;;;;;;;;;;;;;;;;;1053469;28;1789;-69
2022/01/10 01:34:10;;;;;;;;;;;;;;;;;;1052776;28;3391;-69
2022/01/10 01:34:41;;;;;;;;;;;;;;;;;;1053711;28;3202;-68
2022/01/10 01:35:11;;;;;;;;;;;;;;;;;;1049331;28;3357;-69
2022/01/10 01:35:41;;;;;;;;;;;;;;;;;;1050081;28;3247;-69
2022/01/10 01:36:12;;;;;;;;;;;;;;;;;;1044883;28;3584;-68
2022/01/10 01:36:46;;;;;;;;;;;;;;;;;;1044060;28;3234;-69
2022/01/10 01:37:16;;;;;;;;;;;;;;;;;;1048487;28;3195;-68
2022/01/10 01:37:46;;;;;;;;;;;;;;;;;;1049984;28;1864;-69
2022/01/10 01:38:17;;;;;;;;;;;;;;;;;;1052809;28;3205;-69
2022/01/10 01:38:47;;;;;;;;;;;;;;;;;;1053876;28;1867;-68
2022/01/10 01:39:21;;;;;;;;;;;;;;;;;;1054057;28;1387;-70
2022/01/10 01:39:51;;;;;;;;;;;;;;;;;;1052911;28;2260;-69
2022/01/10 01:40:26;;;;;;;;;;;;;;;;;;1053799;28;2335;-68
2022/01/10 01:41:11;;;;;;;;;;;;;;;;;;1053499;28;2049;-68
2022/01/10 01:41:42;;;;;;;;;;;;;;;;;;1052890;28;2481;-69
2022/01/10 01:43:01;;;;;;;;;;;;;;;;;;1052579;28;2310;-69
2022/01/10 01:43:32;;;;;;;;;;;;;;;;;;1053524;28;3055;-69
2022/01/10 01:44:03;;;;;;;;;;;;;;;;;;1053410;28;1901;-69
2022/01/10 01:44:33;;;;;;;;;;;;;;;;;;1049343;28;1923;-68
2022/01/10 01:45:04;;;;;;;;;;;;;;;;;;1047910;28;3161;-68
2022/01/10 01:45:39;;;;;;;;;;;;;;;;;;1049624;28;3129;-69
2022/01/10 01:46:09;;;;;;;;;;;;;;;;;;1048723;28;2242;-68
2022/01/10 01:46:41;;;;;;;;;;;;;;;;;;1053414;28;3235;-68
2022/01/10 01:47:12;;;;;;;;;;;;;;;;;;1052955;28;2450;-68
2022/01/10 01:47:43;;;;;;;;;;;;;;;;;;1054577;28;2846;-67
2022/01/10 01:48:13;;;;;;;;;;;;;;;;;;1053676;28;1872;-68
2022/01/10 01:48:44;;;;;;;;;;;;;;;;;;1053842;28;3579;-69
2022/01/10 01:49:14;;;;;;;;;;;;;;;;;;1053621;28;3250;-69
2022/01/10 01:49:44;;;;;;;;;;;;;;;;;;1052349;28;3327;-69
2022/01/10 01:50:15;;;;;;;;;;;;;;;;;;1054099;28;2964;-69
2022/01/10 01:50:45;;;;;;;;;;;;;;;;;;1054760;28;1909;-69
2022/01/10 01:51:16;;;;;;;;;;;;;;;;;;1052918;28;2845;-69
2022/01/10 01:51:46;;;;;;;;;;;;;;;;;;1052889;28;3186;-68
2022/01/10 01:52:16;;;;;;;;;;;;;;;;;;1053707;28;2525;-68
2022/01/10 01:52:47;;;;;;;;;;;;;;;;;;1055191;28;1702;-69
2022/01/10 01:53:17;;;;;;;;;;;;;;;;;;1052746;28;2814;-69
2022/01/10 01:53:48;;;;;;;;;;;;;;;;;;1054406;28;1886;-68
2022/01/10 01:54:20;;;;;;;;;;;;;;;;;;1053193;28;2977;-68
2022/01/10 01:54:50;;;;;;;;;;;;;;;;;;1054604;28;1300;-69
2022/01/10 01:55:21;;;;;;;;;;;;;;;;;;1052551;28;3415;-69
2022/01/10 01:55:51;;;;;;;;;;;;;;;;;;1054676;28;1674;-67
2022/01/10 01:56:22;;;;;;;;;;;;;;;;;;1053516;28;1847;-69
2022/01/10 01:56:52;;;;;;;;;;;;;;;;;;1046995;28;2763;-69
2022/01/10 01:57:22;;;;;;;;;;;;;;;;;;1048788;28;2858;-68
2022/01/10 01:57:53;;;;;;;;;;;;;;;;;;1047264;28;3484;-68
2022/01/10 01:58:23;;;;;;;;;;;;;;;;;;1047602;28;1979;-68
2022/01/10 01:58:55;;;;;;;;;;;;;;;;;;1054135;28;1933;-69
2022/01/10 01:59:25;;;;;;;;;;;;;;;;;;1053569;28;3146;-69
2022/01/10 01:59:55;;;;;;;;;;;;;;;;;;1053300;28;2648;-67
2022/01/10 02:00:26;;;;;;;;;;;;;;;;;;1050939;28;3048;-68
2022/01/10 02:00:56;;;;;;;;;;;;;;;;;;1053985;28;2676;-69
2022/01/10 02:01:28;;;;;;;;;;;;;;;;;;1053205;28;2869;-69
2022/01/10 02:01:58;;;;;;;;;;;;;;;;;;1053739;28;3136;-68
2022/01/10 02:02:28;;;;;;;;;;;;;;;;;;1053214;28;3754;-69
2022/01/10 02:02:59;;;;;;;;;;;;;;;;;;1054107;28;3543;-69
2022/01/10 02:03:29;;;;;;;;;;;;;;;;;;1054210;28;2956;-68
2022/01/10 02:04:00;;;;;;;;;;;;;;;;;;1054380;28;1857;-69
2022/01/10 02:04:30;;;;;;;;;;;;;;;;;;1054501;28;1743;-69
2022/01/10 02:05:00;;;;;;;;;;;;;;;;;;1052231;28;3098;-68
2022/01/10 02:05:30;;;;;;;;;;;;;;;;;;1053004;28;3355;-68
2022/01/10 02:06:01;;;;;;;;;;;;;;;;;;1054284;28;1652;-68
2022/01/10 02:06:31;;;;;;;;;;;;;;;;;;1054378;28;1883;-67
2022/01/10 02:07:01;;;;;;;;;;;;;;;;;;1052953;28;2874;-68
2022/01/10 02:07:32;;;;;;;;;;;;;;;;;;1052274;28;3376;-69
2022/01/10 02:08:02;;;;;;;;;;;;;;;;;;1054479;28;1731;-68
2022/01/10 02:08:36;;;;;;;;;;;;;;;;;;1053878;28;2778;-69
2022/01/10 02:09:07;;;;;;;;;;;;;;;;;;1054234;28;1750;-69
2022/01/10 02:09:37;;;;;;;;;;;;;;;;;;1052307;28;2587;-69
2022/01/10 02:10:07;;;;;;;;;;;;;;;;;;1050118;28;2816;-70
2022/01/10 02:10:37;;;;;;;;;;;;;;;;;;1052342;28;3070;-69
2022/01/10 02:11:09;;;;;;;;;;;;;;;;;;1053718;28;2689;-69
2022/01/10 02:11:40;;;;;;;;;;;;;;;;;;1053857;28;1995;-69
2022/01/10 02:12:10;;;;;;;;;;;;;;;;;;1049514;28;2670;-69
2022/01/10 02:12:41;;;;;;;;;;;;;;;;;;1048768;28;1724;-69
2022/01/10 02:13:11;;;;;;;;;;;;;;;;;;1048019;28;3106;-69
2022/01/10 02:13:42;;;;;;;;;;;;;;;;;;1049957;28;1682;-68
2022/01/10 02:14:16;;;;;;;;;;;;;;;;;;1053989;28;1714;-68
2022/01/10 02:14:47;;;;;;;;;;;;;;;;;;1052637;28;3544;-69
2022/01/10 02:15:33;;;;;;;;;;;;;;;;;;1051530;28;3200;-69
2022/01/10 02:16:05;;;;;;;;;;;;;;;;;;1051752;28;3154;-69
2022/01/10 02:16:42;;;;;;;;;;;;;;;;;;1054322;28;1939;-69
2022/01/10 02:17:16;;;;;;;;;;;;;;;;;;1052653;28;2888;-69
2022/01/10 02:17:48;;;;;;;;;;;;;;;;;;1053994;28;1910;-70
2022/01/10 02:18:19;;;;;;;;;;;;;;;;;;1054084;28;1923;-69
2022/01/10 02:18:49;;;;;;;;;;;;;;;;;;1054110;28;2540;-69
2022/01/10 02:19:19;;;;;;;;;;;;;;;;;;1052224;28;3128;-70
2022/01/10 02:19:56;;;;;;;;;;;;;;;;;;1053091;28;2819;-67
2022/01/10 02:20:27;;;;;;;;;;;;;;;;;;1054568;28;1281;-68
2022/01/10 02:21:00;;;;;;;;;;;;;;;;;;1053347;28;2876;-68
2022/01/10 02:21:30;;;;;;;;;;;;;;;;;;1053699;28;2963;-69
2022/01/10 02:22:00;;;;;;;;;;;;;;;;;;1053726;28;2288;-69
2022/01/10 02:22:31;;;;;;;;;;;;;;;;;;1054026;28;1621;-68
2022/01/10 02:23:01;;;;;;;;;;;;;;;;;;1053382;28;3320;-68
2022/01/10 02:23:32;;;;;;;;;;;;;;;;;;1054465;28;3210;-69
2022/01/10 02:24:03;;;;;;;;;;;;;;;;;;1051136;28;3335;-68
2022/01/10 02:24:34;;;;;;;;;;;;;;;;;;1053995;28;3105;-67
2022/01/10 02:25:05;;;;;;;;;;;;;;;;;;1053861;28;3035;-68
2022/01/10 02:25:35;;;;;;;;;;;;;;;;;;1053810;28;1349;-69
2022/01/10 02:26:05;;;;;;;;;;;;;;;;;;1051183;28;2979;-70
2022/01/10 02:26:37;;;;;;;;;;;;;;;;;;1053074;28;3357;-68
2022/01/10 02:27:07;;;;;;;;;;;;;;;;;;1053012;28;2009;-69
2022/01/10 02:27:39;;;;;;;;;;;;;;;;;;1050851;28;5526;-68
2022/01/10 02:28:10;;;;;;;;;;;;;;;;;;1053527;28;2964;-68
2022/01/10 02:28:40;;;;;;;;;;;;;;;;;;1053589;28;3289;-68
2022/01/10 02:29:11;;;;;;;;;;;;;;;;;;1053655;28;3540;-69
2022/01/10 02:29:41;;;;;;;;;;;;;;;;;;1052951;28;3493;-69
2022/01/10 02:30:11;;;;;;;;;;;;;;;;;;1052270;28;2940;-69
2022/01/10 02:30:42;;;;;;;;;;;;;;;;;;1054048;28;1914;-69
2022/01/10 02:31:13;;;;;;;;;;;;;;;;;;1053920;28;3412;-67
2022/01/10 02:31:45;;;;;;;;;;;;;;;;;;1052785;28;2809;-69
2022/01/10 02:32:16;;;;;;;;;;;;;;;;;;1049547;28;3248;-68
2022/01/10 02:32:46;;;;;;;;;;;;;;;;;;1049490;28;3458;-68
2022/01/10 02:33:17;;;;;;;;;;;;;;;;;;1049386;28;1486;-68
2022/01/10 02:33:50;;;;;;;;;;;;;;;;;;1048435;28;2636;-69
2022/01/10 02:34:24;;;;;;;;;;;;;;;;;;1048511;28;2860;-68
2022/01/10 02:34:54;;;;;;;;;;;;;;;;;;1048846;28;1869;-68
2022/01/10 02:35:27;;;;;;;;;;;;;;;;;;1049410;28;3104;-68
2022/01/10 02:36:22;;;;;;;;;;;;;;;;;;1050233;28;1692;-68
2022/01/10 02:36:57;;;;;;;;;;;;;;;;;;1053862;28;2877;-69
2022/01/10 02:37:34;;;;;;;;;;;;;;;;;;1054252;28;1840;-68
2022/01/10 02:38:05;;;;;;;;;;;;;;;;;;1052691;28;3249;-69
2022/01/10 02:38:35;;;;;;;;;;;;;;;;;;1054559;28;1506;-72
2022/01/10 02:39:09;;;;;;;;;;;;;;;;;;1053742;28;1342;-71
2022/01/10 02:39:39;;;;;;;;;;;;;;;;;;1053810;28;2543;-68
2022/01/10 02:40:13;;;;;;;;;;;;;;;;;;1053488;28;2160;-68
2022/01/10 02:40:45;;;;;;;;;;;;;;;;;;1054605;28;1978;-69
2022/01/10 02:41:34;;;;;;;;;;;;;;;;;;1053099;28;2603;-69
2022/01/10 02:42:05;;;;;;;;;;;;;;;;;;1050302;28;1893;-69
2022/01/10 02:42:36;;;;;;;;;;;;;;;;;;1049000;28;1846;-69
2022/01/10 02:43:07;;;;;;;;;;;;;;;;;;1047632;28;2970;-69
2022/01/10 02:43:38;;;;;;;;;;;;;;;;;;1049562;28;2091;-69
2022/01/10 02:44:09;;;;;;;;;;;;;;;;;;1055214;28;1446;-68
2022/01/10 02:44:39;;;;;;;;;;;;;;;;;;1054880;28;1673;-69
2022/01/10 02:45:10;;;;;;;;;;;;;;;;;;1053124;28;2335;-68
2022/01/10 02:45:40;;;;;;;;;;;;;;;;;;1054508;28;2835;-68
2022/01/10 02:46:10;;;;;;;;;;;;;;;;;;1054332;28;3032;-67
2022/01/10 02:46:41;;;;;;;;;;;;;;;;;;1053728;28;1750;-69
2022/01/10 02:47:11;;;;;;;;;;;;;;;;;;1054235;28;2534;-68
2022/01/10 02:47:41;;;;;;;;;;;;;;;;;;1054447;28;3361;-69
2022/01/10 02:48:12;;;;;;;;;;;;;;;;;;1054358;28;3451;-69
2022/01/10 02:48:42;;;;;;;;;;;;;;;;;;1049428;28;2111;-68
2022/01/10 02:49:14;;;;;;;;;;;;;;;;;;1047279;28;2506;-69
2022/01/10 02:49:44;;;;;;;;;;;;;;;;;;1050859;28;3462;-68
2022/01/10 02:50:16;;;;;;;;;;;;;;;;;;1049233;28;3575;-69
2022/01/10 02:50:46;;;;;;;;;;;;;;;;;;1054794;28;3002;-70
2022/01/10 02:51:17;;;;;;;;;;;;;;;;;;1054241;28;3162;-69
2022/01/10 02:51:47;;;;;;;;;;;;;;;;;;1055399;28;3274;-68
2022/01/10 02:52:17;;;;;;;;;;;;;;;;;;1048760;28;3504;-69
2022/01/10 02:52:48;;;;;;;;;;;;;;;;;;1050316;28;2952;-69
2022/01/10 02:53:18;;;;;;;;;;;;;;;;;;1049507;28;2436;-68
2022/01/10 02:53:49;;;;;;;;;;;;;;;;;;1050639;28;1629;-69
2022/01/10 02:54:21;;;;;;;;;;;;;;;;;;1052409;28;3688;-69
2022/01/10 02:54:51;;;;;;;;;;;;;;;;;;1055072;28;4316;-68
2022/01/10 02:55:21;;;;;;;;;;;;;;;;;;1054570;28;3155;-69
2022/01/10 02:55:51;;;;;;;;;;;;;;;;;;1053981;28;3054;-69
2022/01/10 02:56:22;;;;;;;;;;;;;;;;;;1052018;28;2554;-68
2022/01/10 02:56:54;;;;;;;;;;;;;;;;;;1052966;28;3553;-69
2022/01/10 02:57:24;;;;;;;;;;;;;;;;;;1053977;28;1906;-68
2022/01/10 02:57:54;;;;;;;;;;;;;;;;;;1053825;28;3364;-68
2022/01/10 02:58:24;;;;;;;;;;;;;;;;;;1053898;28;2060;-69
2022/01/10 02:58:55;;;;;;;;;;;;;;;;;;1053498;28;3309;-68
2022/01/10 02:59:25;;;;;;;;;;;;;;;;;;1053882;28;3330;-69
2022/01/10 02:59:56;;;;;;;;;;;;;;;;;;1054015;28;3290;-69
2022/01/10 03:00:27;;;;;;;;;;;;;;;;;;1051170;28;3254;-69
2022/01/10 03:00:57;;;;;;;;;;;;;;;;;;1054669;28;1998;-69
2022/01/10 03:01:28;;;;;;;;;;;;;;;;;;1050361;28;1738;-70
2022/01/10 03:01:58;;;;;;;;;;;;;;;;;;1050817;28;1622;-68
2022/01/10 03:02:32;;;;;;;;;;;;;;;;;;1047650;28;3926;-69
2022/01/10 03:03:06;;;;;;;;;;;;;;;;;;1050449;28;3876;-69
2022/01/10 03:03:37;;;;;;;;;;;;;;;;;;1055614;28;1329;-69
2022/01/10 03:04:07;;;;;;;;;;;;;;;;;;1053676;28;3754;-68
2022/01/10 03:04:37;;;;;;;;;;;;;;;;;;1053957;28;3074;-68
2022/01/10 03:05:08;;;;;;;;;;;;;;;;;;1053828;28;3394;-69
2022/01/10 03:05:38;;;;;;;;;;;;;;;;;;1054898;28;1846;-69
2022/01/10 03:06:08;;;;;;;;;;;;;;;;;;1055148;28;2879;-69
2022/01/10 03:06:39;;;;;;;;;;;;;;;;;;1055157;28;1674;-68
2022/01/10 03:07:10;;;;;;;;;;;;;;;;;;1054123;28;3113;-69
2022/01/10 03:07:40;;;;;;;;;;;;;;;;;;1052129;28;3765;-69
2022/01/10 03:08:10;;;;;;;;;;;;;;;;;;1053461;28;3488;-69
2022/01/10 03:08:40;;;;;;;;;;;;;;;;;;1053925;28;1794;-70
2022/01/10 03:09:11;;;;;;;;;;;;;;;;;;1054469;27;3220;-68
2022/01/10 03:09:41;;;;;;;;;;;;;;;;;;1053761;28;1656;-68
2022/01/10 03:10:12;;;;;;;;;;;;;;;;;;1052953;28;3419;-69
2022/01/10 03:10:42;;;;;;;;;;;;;;;;;;1055685;28;2001;-69
2022/01/10 03:11:12;;;;;;;;;;;;;;;;;;1053423;28;3321;-67
2022/01/10 03:11:43;;;;;;;;;;;;;;;;;;1052610;28;3118;-69
2022/01/10 03:12:13;;;;;;;;;;;;;;;;;;1053350;28;3253;-69
2022/01/10 03:12:43;;;;;;;;;;;;;;;;;;1054674;28;3107;-68
2022/01/10 03:13:14;;;;;;;;;;;;;;;;;;1053470;28;3767;-69
2022/01/10 03:13:44;;;;;;;;;;;;;;;;;;1054263;28;3089;-69
2022/01/10 03:14:14;;;;;;;;;;;;;;;;;;1054854;28;1884;-69
2022/01/10 03:14:45;;;;;;;;;;;;;;;;;;1053942;28;2440;-69
2022/01/10 03:15:17;;;;;;;;;;;;;;;;;;1053651;28;2086;-69
2022/01/10 03:15:48;;;;;;;;;;;;;;;;;;1055318;28;1815;-69
2022/01/10 03:16:19;;;;;;;;;;;;;;;;;;1054069;28;1900;-68
2022/01/10 03:16:49;;;;;;;;;;;;;;;;;;1054508;28;2207;-69
2022/01/10 03:17:19;;;;;;;;;;;;;;;;;;1053945;28;1935;-69
2022/01/10 03:17:50;;;;;;;;;;;;;;;;;;1053019;28;2751;-68
2022/01/10 03:18:20;;;;;;;;;;;;;;;;;;1053545;28;2968;-68
2022/01/10 03:18:50;;;;;;;;;;;;;;;;;;1054154;28;2738;-69
2022/01/10 03:19:20;;;;;;;;;;;;;;;;;;1054377;28;3132;-68
2022/01/10 03:19:51;;;;;;;;;;;;;;;;;;1054247;28;2915;-68
2022/01/10 03:20:23;;;;;;;;;;;;;;;;;;1052975;28;3060;-69
2022/01/10 03:20:53;;;;;;;;;;;;;;;;;;1054041;28;1866;-68
2022/01/10 03:21:23;;;;;;;;;;;;;;;;;;1054240;27;1665;-69
2022/01/10 03:21:54;;;;;;;;;;;;;;;;;;1054443;28;2827;-69
2022/01/10 03:22:26;;;;;;;;;;;;;;;;;;1054692;28;3334;-69
2022/01/10 03:22:56;;;;;;;;;;;;;;;;;;1052987;28;2861;-69
2022/01/10 03:23:26;;;;;;;;;;;;;;;;;;1049893;28;3072;-68
2022/01/10 03:23:59;;;;;;;;;;;;;;;;;;1049856;28;2829;-69
2022/01/10 03:24:29;;;;;;;;;;;;;;;;;;1049112;28;3532;-69
2022/01/10 03:24:59;;;;;;;;;;;;;;;;;;1050384;28;3792;-68
2022/01/10 03:25:30;;;;;;;;;;;;;;;;;;1053640;28;3648;-69
2022/01/10 03:26:00;;;;;;;;;;;;;;;;;;1053614;28;2192;-68
2022/01/10 03:26:32;;;;;;;;;;;;;;;;;;1054192;28;3236;-69
2022/01/10 03:27:02;;;;;;;;;;;;;;;;;;1053063;28;3537;-68
2022/01/10 03:27:34;;;;;;;;;;;;;;;;;;1053621;28;2483;-69
2022/01/10 03:28:06;;;;;;;;;;;;;;;;;;1053097;28;3414;-68
2022/01/10 03:28:37;;;;;;;;;;;;;;;;;;1053833;28;2737;-68
2022/01/10 03:29:07;;;;;;;;;;;;;;;;;;1055050;28;1870;-68
2022/01/10 03:29:37;;;;;;;;;;;;;;;;;;1054294;28;2453;-70
2022/01/10 03:30:08;;;;;;;;;;;;;;;;;;1053590;28;4949;-69
2022/01/10 03:30:38;;;;;;;;;;;;;;;;;;1053779;28;2901;-68
2022/01/10 03:31:08;;;;;;;;;;;;;;;;;;1054628;28;2010;-69
2022/01/10 03:31:39;;;;;;;;;;;;;;;;;;1054938;28;1674;-68
2022/01/10 03:32:11;;;;;;;;;;;;;;;;;;1054556;28;2749;-68
2022/01/10 03:32:41;;;;;;;;;;;;;;;;;;1052526;28;3428;-69
2022/01/10 03:33:12;;;;;;;;;;;;;;;;;;1054033;28;3807;-69
2022/01/10 03:33:42;;;;;;;;;;;;;;;;;;1054242;28;1851;-69
2022/01/10 03:34:13;;;;;;;;;;;;;;;;;;1053285;28;3257;-67
2022/01/10 03:34:43;;;;;;;;;;;;;;;;;;1054361;28;3033;-69
2022/01/10 03:35:14;;;;;;;;;;;;;;;;;;1053738;28;3077;-68
2022/01/10 03:35:44;;;;;;;;;;;;;;;;;;1047684;28;3180;-69
2022/01/10 03:36:14;;;;;;;;;;;;;;;;;;1049095;28;2871;-68
2022/01/10 03:36:45;;;;;;;;;;;;;;;;;;1050952;28;1638;-69
2022/01/10 03:37:15;;;;;;;;;;;;;;;;;;1049811;28;1865;-69
2022/01/10 03:37:45;;;;;;;;;;;;;;;;;;1054158;28;3254;-69
2022/01/10 03:38:15;;;;;;;;;;;;;;;;;;1046759;28;3585;-68
2022/01/10 03:38:46;;;;;;;;;;;;;;;;;;1050481;28;2323;-67
2022/01/10 03:39:16;;;;;;;;;;;;;;;;;;1049269;28;2378;-69
2022/01/10 03:39:46;;;;;;;;;;;;;;;;;;1050771;28;1626;-68
2022/01/10 03:40:17;;;;;;;;;;;;;;;;;;1054138;28;2662;-68
2022/01/10 03:40:47;;;;;;;;;;;;;;;;;;1054572;28;1769;-68
2022/01/10 03:41:17;;;;;;;;;;;;;;;;;;1054654;28;1513;-69
2022/01/10 03:41:48;;;;;;;;;;;;;;;;;;1054420;28;1975;-69
2022/01/10 03:42:18;;;;;;;;;;;;;;;;;;1052153;28;2832;-69
2022/01/10 03:42:48;;;;;;;;;;;;;;;;;;1054238;28;2856;-69
2022/01/10 03:43:19;;;;;;;;;;;;;;;;;;1055193;28;1313;-69
2022/01/10 03:43:50;;;;;;;;;;;;;;;;;;1054578;28;3142;-69
2022/01/10 03:44:20;;;;;;;;;;;;;;;;;;1055116;28;1786;-68
2022/01/10 03:44:50;;;;;;;;;;;;;;;;;;1053992;28;2016;-70
2022/01/10 03:45:20;;;;;;;;;;;;;;;;;;1052801;28;3633;-69
2022/01/10 03:45:51;;;;;;;;;;;;;;;;;;1054190;28;1427;-68
2022/01/10 03:46:21;;;;;;;;;;;;;;;;;;1054656;28;3010;-68
2022/01/10 03:46:51;;;;;;;;;;;;;;;;;;1053516;28;2209;-68